Time;durP1;ratioP1;P1;durP2;ratioP2;P2;SDS_P1;SDS_P2;PMS_P1;PMS_P2;Temp;Humidity;BMP_temperature;BMP_pressure;BME280_temperature;BME280_humidity;BME280_pressure;Samples;Min_cycle;Max_cycle;Signal;HPM_P1;HPM_P2
2021/08/09 00:01:03;;;;;;;3.20;1.77;;;15.80;99.90;;;;;;4996562;28;20767;-83
2021/08/09 00:03:29;;;;;;;2.47;1.17;;;15.80;99.90;;;;;;5014305;28;20643;-86
2021/08/09 00:05:54;;;;;;;4.53;0.80;;;15.80;99.90;;;;;;5016551;28;20657;-84
2021/08/09 00:08:21;;;;;;;12.80;2.20;;;15.70;99.90;;;;;;5000105;28;20202;-84
2021/08/09 00:10:47;;;;;;;5.60;1.13;;;15.70;99.90;;;;;;4977850;28;20238;-86
2021/08/09 00:13:13;;;;;;;0.97;0.70;;;15.70;99.90;;;;;;5005133;28;20234;-85
2021/08/09 00:15:39;;;;;;;3.70;1.33;;;15.60;99.90;;;;;;5005098;28;21055;-84
2021/08/09 00:18:05;;;;;;;2.33;0.80;;;15.60;99.90;;;;;;5002852;28;20178;-85
2021/08/09 00:20:30;;;;;;;2.40;0.93;;;15.60;99.90;;;;;;5023166;28;20241;-85
2021/08/09 00:22:56;;;;;;;3.87;0.87;;;15.50;99.90;;;;;;5005088;28;20708;-85
2021/08/09 00:25:22;;;;;;;4.43;1.50;;;15.50;99.90;;;;;;5005640;28;20225;-84
2021/08/09 00:27:48;;;;;;;9.63;1.00;;;15.50;99.90;;;;;;5006536;28;20214;-84
2021/08/09 00:30:13;;;;;;;1.67;0.93;;;15.50;99.90;;;;;;5006663;28;20217;-83
2021/08/09 00:32:39;;;;;;;2.20;0.60;;;15.50;99.90;;;;;;5040718;28;20533;-84
2021/08/09 00:35:06;;;;;;;2.03;0.60;;;15.40;99.90;;;;;;5006092;28;20217;-84
2021/08/09 00:37:32;;;;;;;1.53;0.70;;;15.40;99.90;;;;;;5022380;28;20241;-84
2021/08/09 00:39:58;;;;;;;1.27;0.50;;;15.40;99.90;;;;;;5016201;28;20238;-83
2021/08/09 00:42:24;;;;;;;0.60;0.40;;;15.40;99.90;;;;;;5041498;28;20226;-85
2021/08/09 00:44:50;;;;;;;1.30;0.50;;;15.30;99.90;;;;;;5021512;28;20190;-85
2021/08/09 00:47:16;;;;;;;1.23;0.60;;;15.30;99.90;;;;;;5039679;28;20182;-84
2021/08/09 00:49:41;;;;;;;0.37;0.33;;;15.30;99.90;;;;;;5002863;28;20232;-84
2021/08/09 00:52:08;;;;;;;2.67;0.70;;;15.30;99.90;;;;;;5015569;28;20307;-83
2021/08/09 00:54:34;;;;;;;3.03;0.60;;;15.20;99.90;;;;;;5015032;28;20229;-84
2021/08/09 00:57:01;;;;;;;2.53;0.80;;;15.30;99.90;;;;;;5033432;28;20209;-84
2021/08/09 00:59:28;;;;;;;1.27;1.00;;;15.20;99.90;;;;;;5000781;28;20186;-83
2021/08/09 01:01:54;;;;;;;2.53;1.40;;;15.10;99.90;;;;;;5033399;28;20312;-84
2021/08/09 01:04:20;;;;;;;1.93;1.20;;;15.00;99.90;;;;;;5016446;28;20337;-84
2021/08/09 01:06:47;;;;;;;1.37;1.17;;;14.90;99.90;;;;;;5019124;28;20550;-85
2021/08/09 01:09:33;;;;;;;3.37;1.40;;;15.00;99.90;;;;;;5004155;28;20275;-85
2021/08/09 01:12:21;;;;;;;2.30;1.60;;;15.10;99.90;;;;;;5016449;28;20229;-84
2021/08/09 01:14:58;;;;;;;3.33;1.53;;;15.10;99.90;;;;;;5018356;28;20195;-84
2021/08/09 01:17:31;;;;;;;3.47;1.40;;;15.10;99.90;;;;;;5017788;28;20214;-84
2021/08/09 01:20:31;;;;;;;4.37;1.80;;;15.10;99.90;;;;;;5017913;28;20238;-86
2021/08/09 01:22:57;;;;;;;3.07;2.27;;;15.10;99.90;;;;;;5025775;28;20316;-84
2021/08/09 01:25:45;;;;;;;1.57;1.47;;;15.20;99.90;;;;;;5018945;28;20751;-84
2021/08/09 01:28:12;;;;;;;2.87;1.90;;;15.10;99.90;;;;;;5018795;28;20600;-85
2021/08/09 01:30:40;;;;;;;3.57;1.60;;;15.20;99.90;;;;;;5007011;28;20258;-84
2021/08/09 01:33:09;;;;;;;2.43;1.37;;;15.20;99.90;;;;;;5015023;28;20197;-85
2021/08/09 01:35:36;;;;;;;2.10;1.90;;;15.20;99.90;;;;;;5026837;28;20201;-85
2021/08/09 01:38:03;;;;;;;5.43;1.73;;;15.20;99.90;;;;;;5023315;28;20268;-85
2021/08/09 01:40:30;;;;;;;6.13;1.60;;;15.30;99.90;;;;;;5024058;28;20234;-84
2021/08/09 01:42:58;;;;;;;4.50;1.77;;;15.30;99.90;;;;;;5028095;28;20749;-86
2021/08/09 01:45:24;;;;;;;3.87;2.17;;;15.30;99.90;;;;;;5006558;28;20240;-87
2021/08/09 01:47:52;;;;;;;1.80;1.50;;;15.30;99.90;;;;;;5016061;28;20675;-85
2021/08/09 01:50:18;;;;;;;4.13;2.93;;;15.30;99.90;;;;;;5021185;28;20194;-85
2021/08/09 01:52:44;;;;;;;4.37;2.33;;;15.40;99.90;;;;;;5022862;28;20584;-84
2021/08/09 01:55:13;;;;;;;3.43;1.43;;;15.40;99.90;;;;;;5010633;28;20223;-84
2021/08/09 01:57:39;;;;;;;2.00;1.07;;;15.30;99.90;;;;;;5015479;28;20222;-85
2021/08/09 02:00:08;;;;;;;8.63;1.60;;;15.30;99.90;;;;;;5005133;28;20745;-86
2021/08/09 02:02:35;;;;;;;7.33;1.87;;;15.20;99.90;;;;;;5031700;28;20222;-85
2021/08/09 02:05:10;;;;;;;4.43;2.27;;;15.20;99.90;;;;;;5001597;28;20218;-87
2021/08/09 02:07:45;;;;;;;2.50;1.87;;;15.20;99.90;;;;;;5011660;28;20221;-84
2021/08/09 02:10:14;;;;;;;2.73;1.80;;;15.20;99.90;;;;;;5021441;28;20551;-87
2021/08/09 02:12:51;;;;;;;5.03;1.13;;;15.20;99.90;;;;;;5022734;28;20317;-84
2021/08/09 02:15:26;;;;;;;3.77;2.10;;;15.20;99.90;;;;;;5022813;28;20218;-85
2021/08/09 02:18:01;;;;;;;5.43;2.00;;;15.10;99.90;;;;;;5018518;28;20215;-86
2021/08/09 02:20:32;;;;;;;4.37;2.10;;;15.10;99.90;;;;;;5023197;28;20305;-87
2021/08/09 02:23:03;;;;;;;2.73;1.50;;;15.10;99.90;;;;;;5024359;28;20346;-85
2021/08/09 02:25:32;;;;;;;3.97;1.70;;;15.00;99.90;;;;;;5025486;28;20238;-84
2021/08/09 02:28:10;;;;;;;2.40;1.77;;;15.00;99.90;;;;;;5026076;28;20244;-84
2021/08/09 02:30:40;;;;;;;4.30;1.93;;;15.00;99.90;;;;;;5025706;28;20225;-84
2021/08/09 02:33:06;;;;;;;4.93;2.03;;;15.00;99.90;;;;;;5025660;28;20244;-84
2021/08/09 02:35:34;;;;;;;4.10;2.00;;;14.90;99.90;;;;;;5025091;28;20237;-84
2021/08/09 02:38:00;;;;;;;2.40;1.70;;;14.90;99.90;;;;;;5008509;28;20220;-84
2021/08/09 02:40:27;;;;;;;2.13;1.60;;;14.90;99.90;;;;;;5025558;28;21053;-84
2021/08/09 02:42:53;;;;;;;2.73;1.60;;;14.90;99.90;;;;;;5024839;28;20241;-85
2021/08/09 02:45:19;;;;;;;3.43;1.77;;;14.90;99.90;;;;;;5015502;28;20668;-84
2021/08/09 02:47:47;;;;;;;3.97;1.80;;;14.90;99.90;;;;;;4988066;28;20321;-84
2021/08/09 02:50:14;;;;;;;2.27;1.30;;;14.80;99.90;;;;;;5025075;28;20633;-86
2021/08/09 02:52:42;;;;;;;6.20;2.47;;;14.80;99.90;;;;;;5008703;28;20218;-84
2021/08/09 02:55:09;;;;;;;2.27;1.40;;;14.70;99.90;;;;;;5023454;28;20237;-83
2021/08/09 02:57:37;;;;;;;4.97;2.50;;;14.80;99.90;;;;;;5025255;28;20222;-84
2021/08/09 03:00:04;;;;;;;4.77;2.17;;;14.70;99.90;;;;;;5029843;28;20207;-85
2021/08/09 03:02:35;;;;;;;6.60;1.90;;;14.80;99.90;;;;;;5022073;28;20201;-84
2021/08/09 03:05:01;;;;;;;1.83;1.33;;;14.80;99.90;;;;;;5038610;28;20249;-88
2021/08/09 03:07:29;;;;;;;3.23;1.73;;;14.80;99.90;;;;;;5003838;28;20675;-84
2021/08/09 03:09:55;;;;;;;3.47;2.53;;;14.80;99.90;;;;;;5018285;28;20217;-85
2021/08/09 03:12:21;;;;;;;3.73;2.17;;;14.90;99.90;;;;;;4998539;28;20231;-87
2021/08/09 03:14:51;;;;;;;7.13;2.23;;;14.90;99.90;;;;;;5000467;28;20249;-84
2021/08/09 03:17:18;;;;;;;3.53;2.10;;;14.90;99.90;;;;;;5000625;28;20226;-86
2021/08/09 03:19:43;;;;;;;4.27;2.73;;;14.90;99.90;;;;;;5023525;28;20314;-86
2021/08/09 03:22:12;;;;;;;7.43;2.40;;;15.00;99.90;;;;;;4999229;28;20227;-86
2021/08/09 03:24:38;;;;;;;2.87;2.30;;;15.10;99.90;;;;;;5017780;28;20210;-87
2021/08/09 03:27:05;;;;;;;6.77;2.20;;;15.10;99.90;;;;;;5017135;28;20194;-85
2021/08/09 03:29:31;;;;;;;3.80;2.37;;;15.20;99.90;;;;;;5006240;28;20195;-87
2021/08/09 03:31:57;;;;;;;2.67;2.17;;;15.20;99.90;;;;;;5021944;28;20230;-87
2021/08/09 03:34:23;;;;;;;2.83;1.90;;;15.20;99.90;;;;;;4982788;28;21486;-90
2021/08/09 03:36:51;;;;;;;8.47;2.40;;;15.20;99.90;;;;;;5037414;28;20593;-88
2021/08/09 03:39:17;;;;;;;3.37;2.13;;;15.20;99.90;;;;;;5020200;28;20226;-86
2021/08/09 03:41:43;;;;;;;2.60;2.40;;;15.20;99.90;;;;;;5020629;28;20224;-86
2021/08/09 03:44:10;;;;;;;3.50;1.73;;;15.20;99.90;;;;;;5020825;28;20218;-85
2021/08/09 03:46:36;;;;;;;5.43;3.13;;;15.20;99.90;;;;;;5005209;28;20229;-86
2021/08/09 03:49:09;;;;;;;4.00;2.20;;;15.20;99.90;;;;;;5021706;28;20250;-85
2021/08/09 03:51:37;;;;;;;2.37;2.03;;;15.10;99.90;;;;;;5022207;28;20249;-84
2021/08/09 03:54:04;;;;;;;4.20;2.30;;;15.10;99.90;;;;;;5022140;28;20191;-84
2021/08/09 03:56:29;;;;;;;3.30;2.20;;;15.20;99.90;;;;;;5005536;28;20209;-85
2021/08/09 03:58:55;;;;;;;6.10;2.13;;;15.20;99.90;;;;;;4998149;28;20211;-86
2021/08/09 04:01:21;;;;;;;2.40;1.93;;;15.20;99.90;;;;;;5020133;28;20730;-85
2021/08/09 04:03:47;;;;;;;4.93;2.77;;;15.30;99.90;;;;;;5005126;28;20968;-86
2021/08/09 04:06:13;;;;;;;5.37;2.40;;;15.30;99.90;;;;;;5020994;28;20226;-84
2021/08/09 04:08:40;;;;;;;4.13;2.97;;;15.30;99.90;;;;;;5004860;28;20224;-85
2021/08/09 04:11:06;;;;;;;5.50;2.83;;;15.30;99.90;;;;;;5029808;28;20237;-86
2021/08/09 04:13:34;;;;;;;6.37;3.07;;;15.30;99.90;;;;;;5042643;28;20253;-84
2021/08/09 04:16:00;;;;;;;5.40;2.93;;;15.40;99.90;;;;;;5022599;28;20233;-85
2021/08/09 04:18:26;;;;;;;8.63;4.03;;;15.40;99.90;;;;;;5022485;28;20237;-87
2021/08/09 04:20:52;;;;;;;8.20;3.43;;;15.50;99.90;;;;;;5006781;28;20210;-88
2021/08/09 04:23:18;;;;;;;6.03;3.10;;;15.60;99.90;;;;;;5007355;28;20197;-86
2021/08/09 04:25:43;;;;;;;17.23;4.27;;;15.60;99.90;;;;;;5040608;28;20556;-83
2021/08/09 04:28:09;;;;;;;8.30;3.20;;;15.60;99.90;;;;;;5023943;28;20214;-83
2021/08/09 04:30:35;;;;;;;9.47;2.33;;;15.70;99.90;;;;;;5006066;28;20629;-86
2021/08/09 04:33:05;;;;;;;6.07;2.17;;;15.70;99.90;;;;;;5023688;28;20209;-84
2021/08/09 04:35:31;;;;;;;9.63;2.97;;;15.70;99.90;;;;;;5016359;28;20281;-88
2021/08/09 04:37:57;;;;;;;6.60;3.87;;;15.60;99.90;;;;;;5005796;28;20227;-86
2021/08/09 04:40:23;;;;;;;10.00;3.60;;;15.70;99.90;;;;;;5041366;28;20229;-87
2021/08/09 04:42:49;;;;;;;7.63;3.00;;;15.70;99.90;;;;;;5022279;28;20210;-87
2021/08/09 04:45:14;;;;;;;12.07;3.40;;;15.70;99.90;;;;;;5017708;28;20295;-89
2021/08/09 04:47:40;;;;;;;2.93;2.17;;;15.70;99.90;;;;;;5017922;28;20809;-87
2021/08/09 04:50:07;;;;;;;8.13;2.60;;;15.70;99.90;;;;;;5008407;28;20229;-88
2021/08/09 04:52:38;;;;;;;7.97;2.50;;;15.70;99.90;;;;;;5015904;28;20214;-87
2021/08/09 04:55:04;;;;;;;2.80;2.53;;;15.60;99.90;;;;;;5011275;28;20212;-86
2021/08/09 04:57:30;;;;;;;7.00;2.67;;;15.60;99.90;;;;;;5022526;28;20225;-86
2021/08/09 04:59:56;;;;;;;7.53;2.30;;;15.60;99.90;;;;;;5038294;28;20259;-84
2021/08/09 05:02:21;;;;;;;7.10;3.07;;;15.60;99.90;;;;;;5023288;28;21067;-89
2021/08/09 05:04:47;;;;;;;7.53;2.57;;;15.50;99.90;;;;;;5015166;28;20231;-86
2021/08/09 05:07:14;;;;;;;3.87;2.07;;;15.60;99.90;;;;;;5022869;28;20237;-87
2021/08/09 05:09:40;;;;;;;5.50;2.00;;;15.60;99.90;;;;;;5021236;28;20705;-87
2021/08/09 05:12:06;;;;;;;9.70;2.90;;;15.70;99.90;;;;;;5021179;28;20238;-87
2021/08/09 05:14:32;;;;;;;11.07;2.77;;;15.70;99.90;;;;;;5021490;28;20731;-87
2021/08/09 05:16:57;;;;;;;3.23;1.73;;;15.60;99.90;;;;;;5003004;28;20636;-87
2021/08/09 05:19:23;;;;;;;9.80;3.57;;;15.70;99.90;;;;;;5004198;28;20253;-88
2021/08/09 05:21:49;;;;;;;4.27;2.77;;;15.70;99.90;;;;;;5019110;28;20234;-88
2021/08/09 05:24:15;;;;;;;3.67;2.10;;;15.80;99.90;;;;;;5018450;28;20226;-87
2021/08/09 05:26:40;;;;;;;2.37;2.17;;;15.90;99.90;;;;;;4987000;28;20205;-85
2021/08/09 05:29:06;;;;;;;5.97;2.40;;;15.90;99.90;;;;;;5004430;28;20214;-86
2021/08/09 05:31:32;;;;;;;7.27;2.70;;;15.90;99.90;;;;;;5039488;28;20217;-85
2021/08/09 05:34:00;;;;;;;6.23;3.27;;;16.10;99.90;;;;;;5019580;28;20283;-88
2021/08/09 05:36:25;;;;;;;6.63;2.53;;;16.20;99.90;;;;;;5010991;28;20306;-85
2021/08/09 05:38:51;;;;;;;6.37;2.63;;;16.40;99.90;;;;;;5015379;28;20182;-87
2021/08/09 05:41:17;;;;;;;8.90;3.03;;;16.50;99.90;;;;;;5014875;28;20224;-86
2021/08/09 05:43:43;;;;;;;2.97;2.17;;;16.70;99.90;;;;;;5001205;28;20259;-86
2021/08/09 05:46:09;;;;;;;3.67;2.37;;;16.80;99.90;;;;;;5016339;28;20209;-87
2021/08/09 05:48:35;;;;;;;2.77;2.13;;;16.90;99.90;;;;;;5015792;28;20232;-89
2021/08/09 05:51:00;;;;;;;9.77;2.77;;;17.00;99.90;;;;;;5004814;28;20201;-88
2021/08/09 05:53:27;;;;;;;9.37;3.10;;;17.10;99.90;;;;;;5005574;28;20193;-86
2021/08/09 05:55:54;;;;;;;4.80;2.93;;;17.20;99.90;;;;;;5004604;28;20217;-87
2021/08/09 05:58:20;;;;;;;15.63;4.07;;;17.40;99.90;;;;;;5018065;28;20237;-88
2021/08/09 06:00:46;;;;;;;6.80;2.67;;;17.50;99.90;;;;;;5021397;28;20234;-89
2021/08/09 06:03:16;;;;;;;6.80;2.93;;;17.60;99.90;;;;;;5003079;28;20272;-88
2021/08/09 06:05:54;;;;;;;5.33;2.20;;;17.70;99.90;;;;;;4995227;28;20198;-91
2021/08/09 06:08:21;;;;;;;11.70;2.43;;;17.90;99.90;;;;;;5004960;28;20584;-86
2021/08/09 06:10:47;;;;;;;12.40;3.60;;;18.10;99.90;;;;;;5039282;28;20299;-86
2021/08/09 06:13:13;;;;;;;5.93;2.63;;;18.40;99.90;;;;;;5040133;28;20228;-87
2021/08/09 06:15:39;;;;;;;6.33;2.80;;;18.70;99.90;;;;;;5002204;28;20228;-86
2021/08/09 06:18:05;;;;;;;8.13;3.10;;;18.70;99.90;;;;;;5006547;28;20631;-89
2021/08/09 06:20:31;;;;;;;7.73;2.73;;;18.70;99.90;;;;;;5021479;28;20225;-88
2021/08/09 06:22:57;;;;;;;7.03;2.63;;;18.70;99.90;;;;;;5007132;28;20226;-89
2021/08/09 06:25:23;;;;;;;8.30;2.33;;;18.40;99.90;;;;;;5025500;28;20257;-89
2021/08/09 06:27:50;;;;;;;2.90;2.60;;;18.20;99.90;;;;;;5000362;28;20209;-88
2021/08/09 06:30:16;;;;;;;10.27;2.37;;;18.10;99.90;;;;;;5024351;28;20230;-89
2021/08/09 06:32:42;;;;;;;9.23;2.27;;;18.20;99.90;;;;;;5045027;28;20293;-86
2021/08/09 06:35:09;;;;;;;4.60;2.10;;;18.20;99.90;;;;;;5043216;28;20781;-85
2021/08/09 06:37:35;;;;;;;10.67;2.93;;;18.10;99.90;;;;;;5024422;28;20210;-88
2021/08/09 06:40:05;;;;;;;12.17;2.87;;;18.10;99.90;;;;;;5024338;28;20316;-88
2021/08/09 06:42:30;;;;;;;2.63;2.17;;;18.00;99.90;;;;;;5032160;28;20229;-85
2021/08/09 06:44:56;;;;;;;6.90;3.00;;;17.90;99.90;;;;;;5007973;28;20190;-87
2021/08/09 06:47:22;;;;;;;5.57;2.30;;;17.90;99.90;;;;;;5026315;28;20226;-87
2021/08/09 06:49:48;;;;;;;8.80;3.33;;;18.00;99.90;;;;;;5008897;28;20229;-84
2021/08/09 06:52:18;;;;;;;5.13;2.60;;;18.10;99.90;;;;;;5008901;28;20682;-87
2021/08/09 06:54:45;;;;;;;7.13;2.43;;;18.20;99.90;;;;;;5010440;28;20228;-88
2021/08/09 06:57:12;;;;;;;11.50;2.30;;;18.20;99.90;;;;;;5009035;28;20218;-85
2021/08/09 06:59:37;;;;;;;7.77;2.80;;;18.20;99.90;;;;;;5008284;28;21005;-84
2021/08/09 07:02:04;;;;;;;9.03;2.70;;;18.30;99.90;;;;;;5008537;28;20218;-86
2021/08/09 07:04:29;;;;;;;5.87;2.67;;;18.50;99.90;;;;;;5007283;28;20647;-86
2021/08/09 07:06:55;;;;;;;5.47;2.17;;;18.70;99.90;;;;;;5023511;28;20221;-85
2021/08/09 07:09:21;;;;;;;6.67;2.30;;;18.90;99.90;;;;;;5008859;28;20218;-87
2021/08/09 07:11:47;;;;;;;9.27;2.87;;;19.00;99.90;;;;;;5008997;28;20237;-85
2021/08/09 07:14:13;;;;;;;11.93;3.27;;;19.10;99.90;;;;;;5042473;28;20874;-87
2021/08/09 07:16:39;;;;;;;6.77;2.13;;;19.00;99.90;;;;;;5008236;28;20637;-87
2021/08/09 07:19:05;;;;;;;6.77;1.97;;;19.00;99.90;;;;;;5024204;28;20221;-86
2021/08/09 07:21:30;;;;;;;3.40;1.60;;;19.10;99.90;;;;;;5008545;28;20602;-88
2021/08/09 07:23:56;;;;;;;6.87;2.50;;;19.30;99.90;;;;;;5025182;28;20830;-88
2021/08/09 07:26:22;;;;;;;9.80;2.80;;;19.00;99.90;;;;;;5024743;28;20200;-88
2021/08/09 07:28:47;;;;;;;9.67;2.77;;;19.10;99.90;;;;;;5007745;28;21091;-84
2021/08/09 07:31:13;;;;;;;6.20;2.20;;;19.20;99.90;;;;;;5008106;28;20675;-90
2021/08/09 07:33:39;;;;;;;5.77;2.37;;;19.00;99.90;;;;;;5007652;28;20218;-86
2021/08/09 07:36:06;;;;;;;4.80;1.90;;;18.90;99.90;;;;;;5008657;28;20267;-90
2021/08/09 07:38:33;;;;;;;6.30;1.53;;;18.70;99.90;;;;;;5043329;28;20251;-86
2021/08/09 07:40:58;;;;;;;5.27;2.33;;;18.50;99.90;;;;;;5024868;28;20217;-85
2021/08/09 07:43:24;;;;;;;10.67;2.77;;;18.60;99.90;;;;;;5008560;28;20251;-84
2021/08/09 07:45:50;;;;;;;8.83;2.50;;;19.00;99.90;;;;;;5016307;28;20206;-88
2021/08/09 07:48:16;;;;;;;7.87;2.17;;;19.30;99.90;;;;;;5008204;28;20233;-84
2021/08/09 07:50:42;;;;;;;6.20;2.80;;;19.10;99.90;;;;;;5008314;28;20277;-88
2021/08/09 07:53:08;;;;;;;11.97;2.37;;;18.90;99.90;;;;;;5024106;28;20709;-84
2021/08/09 07:55:34;;;;;;;10.57;2.90;;;18.80;99.90;;;;;;5024267;28;20767;-88
2021/08/09 07:57:59;;;;;;;3.53;2.83;;;18.90;99.90;;;;;;5008778;28;20231;-91
2021/08/09 08:00:25;;;;;;;5.10;2.80;;;18.80;99.90;;;;;;5024165;28;20240;-90
2021/08/09 08:02:52;;;;;;;6.00;2.27;;;18.70;99.90;;;;;;5008343;28;21394;-90
2021/08/09 08:05:18;;;;;;;8.87;2.73;;;18.80;99.90;;;;;;5008953;28;20198;-85
2021/08/09 08:07:44;;;;;;;6.37;2.87;;;19.10;99.90;;;;;;4983730;28;20233;-87
2021/08/09 08:10:11;;;;;;;4.67;2.10;;;19.10;99.90;;;;;;5023279;28;20226;-88
2021/08/09 08:12:37;;;;;;;2.33;1.93;;;19.50;99.90;;;;;;5022802;28;20233;-87
2021/08/09 08:15:04;;;;;;;9.23;3.13;;;19.60;99.90;;;;;;5023455;28;20194;-88
2021/08/09 08:17:29;;;;;;;5.70;2.53;;;19.40;99.90;;;;;;5006912;28;21383;-87
2021/08/09 08:19:55;;;;;;;8.47;2.03;;;19.20;99.90;;;;;;5004987;28;20229;-87
2021/08/09 08:22:21;;;;;;;8.67;3.77;;;18.80;99.90;;;;;;5023097;28;20708;-92
2021/08/09 08:24:47;;;;;;;3.33;1.90;;;19.00;99.90;;;;;;5005519;28;21058;-89
2021/08/09 08:27:12;;;;;;;7.33;2.57;;;19.00;99.90;;;;;;5005688;28;20226;-85
2021/08/09 08:29:38;;;;;;;6.17;4.40;;;19.30;99.90;;;;;;5006298;28;20198;-91
2021/08/09 08:32:04;;;;;;;3.20;1.77;;;20.00;99.90;;;;;;5023034;28;20214;-88
2021/08/09 08:34:30;;;;;;;4.03;1.93;;;20.50;99.90;;;;;;5013184;28;20620;-85
2021/08/09 08:36:56;;;;;;;7.87;2.43;;;20.40;99.90;;;;;;5006888;28;20217;-87
2021/08/09 08:39:21;;;;;;;3.57;1.63;;;20.60;99.90;;;;;;5040772;28;20305;-90
2021/08/09 08:41:47;;;;;;;5.63;2.07;;;21.40;99.90;;;;;;5008380;28;20608;-89
2021/08/09 08:44:18;;;;;;;3.17;1.63;;;21.60;99.90;;;;;;5023475;28;20571;-86
2021/08/09 08:46:45;;;;;;;5.13;2.53;;;22.50;99.90;;;;;;5022775;28;21365;-90
2021/08/09 08:49:15;;;;;;;8.80;2.20;;;22.20;99.90;;;;;;5040905;28;20255;-86
2021/08/09 08:51:43;;;;;;;3.97;2.13;;;21.60;99.90;;;;;;5023574;28;20210;-90
2021/08/09 08:54:09;;;;;;;7.80;2.10;;;21.10;99.90;;;;;;5007776;28;20929;-87
2021/08/09 08:56:42;;;;;;;3.20;1.70;;;20.30;99.90;;;;;;5023668;28;20981;-90
2021/08/09 08:59:13;;;;;;;2.57;1.90;;;19.80;99.90;;;;;;5023245;28;20328;-91
2021/08/09 09:01:43;;;;;;;5.43;1.97;;;19.70;99.90;;;;;;5023971;28;20299;-87
2021/08/09 09:04:19;;;;;;;6.27;1.93;;;19.70;99.90;;;;;;5041756;28;20216;-88
2021/08/09 09:06:45;;;;;;;3.57;2.33;;;19.90;99.90;;;;;;5041347;28;20620;-90
2021/08/09 09:09:22;;;;;;;5.23;2.10;;;20.60;99.90;;;;;;5006381;28;20679;-88
2021/08/09 09:11:47;;;;;;;6.43;2.43;;;21.10;99.90;;;;;;5023326;28;20221;-86
2021/08/09 09:14:24;;;;;;;2.67;1.83;;;21.00;99.90;;;;;;5040551;28;20257;-87
2021/08/09 09:16:50;;;;;;;7.73;2.37;;;20.90;99.90;;;;;;5019932;28;20304;-90
2021/08/09 09:19:44;;;;;;;5.07;2.80;;;20.80;99.90;;;;;;5003111;28;20210;-89
2021/08/09 09:22:32;;;;;;;2.63;2.20;;;20.60;99.90;;;;;;5033779;28;20230;-89
2021/08/09 09:24:57;;;;;;;4.17;2.17;;;20.40;99.90;;;;;;5022507;28;20229;-89
2021/08/09 09:27:34;;;;;;;5.70;2.60;;;20.50;99.90;;;;;;5007295;28;20901;-92
2021/08/09 09:30:20;;;;;;;8.00;2.20;;;20.50;99.90;;;;;;5022478;28;20182;-88
2021/08/09 09:32:59;;;;;;;6.77;2.13;;;20.70;99.90;;;;;;5023554;28;20212;-89
2021/08/09 09:35:25;;;;;;;4.30;2.37;;;21.10;99.90;;;;;;5020727;28;20226;-92
2021/08/09 09:37:52;;;;;;;5.10;2.83;;;21.00;99.90;;;;;;5020374;28;20221;-87
2021/08/09 09:40:20;;;;;;;2.97;2.30;;;20.50;99.90;;;;;;4998596;28;20233;-89
2021/08/09 09:42:46;;;;;;;6.93;2.60;;;20.70;99.90;;;;;;5022754;28;20705;-92
2021/08/09 09:45:29;;;;;;;9.13;3.27;;;21.40;99.90;;;;;;5020805;28;20257;-88
2021/08/09 09:48:09;;;;;;;6.57;2.87;;;21.30;99.90;;;;;;5038999;28;20232;-91
2021/08/09 09:50:41;;;;;;;3.53;2.23;;;21.40;99.90;;;;;;5041218;28;21042;-91
2021/08/09 09:53:21;;;;;;;3.00;2.03;;;21.70;99.90;;;;;;5020051;28;20533;-86
2021/08/09 09:55:50;;;;;;;2.30;1.73;;;21.20;99.90;;;;;;5038650;28;20263;-86
2021/08/09 09:58:17;;;;;;;3.60;1.97;;;21.20;99.90;;;;;;5025899;28;20244;-92
2021/08/09 10:00:43;;;;;;;6.37;2.30;;;21.00;99.90;;;;;;5045225;28;20230;-86
2021/08/09 10:03:12;;;;;;;4.80;2.80;;;20.50;99.90;;;;;;5025817;28;20194;-86
2021/08/09 10:05:40;;;;;;;3.47;1.97;;;20.60;99.90;;;;;;5045685;28;20189;-89
2021/08/09 10:08:16;;;;;;;5.53;2.70;;;21.10;99.90;;;;;;5017141;28;20283;-88
2021/08/09 10:10:50;;;;;;;5.37;1.90;;;21.00;99.90;;;;;;5042445;28;20275;-87
2021/08/09 10:13:19;;;;;;;6.17;1.87;;;20.50;99.90;;;;;;5025352;28;20250;-88
2021/08/09 10:15:51;;;;;;;4.13;2.60;;;20.40;99.90;;;;;;5026376;28;20253;-86
2021/08/09 10:18:24;;;;;;;2.80;1.83;;;20.50;99.90;;;;;;5045139;28;20209;-89
2021/08/09 10:20:52;;;;;;;3.87;2.23;;;21.00;99.90;;;;;;5009367;28;21027;-87
2021/08/09 10:23:35;;;;;;;7.87;2.10;;;20.80;99.90;;;;;;5026301;28;20202;-86
2021/08/09 10:26:01;;;;;;;5.40;2.27;;;20.40;99.90;;;;;;5017057;28;20578;-86
2021/08/09 10:28:54;;;;;;;5.73;2.07;;;20.30;99.90;;;;;;5025519;28;20222;-87
2021/08/09 10:31:25;;;;;;;4.03;2.17;;;20.00;99.90;;;;;;5025619;28;20581;-83
2021/08/09 10:33:52;;;;;;;3.07;2.23;;;19.70;99.90;;;;;;5024427;28;20217;-87
2021/08/09 10:36:22;;;;;;;4.03;2.20;;;19.10;99.90;;;;;;5025545;28;20553;-86
2021/08/09 10:38:56;;;;;;;3.27;1.70;;;19.00;99.90;;;;;;5025262;28;20201;-86
2021/08/09 10:41:33;;;;;;;9.13;2.57;;;18.40;99.90;;;;;;5006831;28;20244;-84
2021/08/09 10:44:05;;;;;;;6.83;1.90;;;18.00;99.90;;;;;;5023317;28;20956;-87
2021/08/09 10:46:34;;;;;;;1.33;1.20;;;17.40;99.90;;;;;;5041988;28;20259;-89
2021/08/09 10:49:00;;;;;;;1.70;1.60;;;16.90;99.90;;;;;;5025931;28;20299;-85
2021/08/09 10:51:50;;;;;;;3.50;2.20;;;16.80;99.90;;;;;;5009240;28;20995;-85
2021/08/09 10:54:35;;;;;;;3.17;1.97;;;16.80;99.90;;;;;;5026131;28;20628;-84
2021/08/09 10:57:01;;;;;;;2.17;2.00;;;16.90;99.90;;;;;;5008666;28;20189;-87
2021/08/09 10:59:47;;;;;;;2.00;1.90;;;17.10;99.90;;;;;;5000062;28;20190;-85
2021/08/09 11:02:24;;;;;;;4.97;2.97;;;17.30;99.90;;;;;;5025252;28;20237;-85
2021/08/09 11:05:16;;;;;;;6.03;2.30;;;17.50;99.90;;;;;;5002690;28;20210;-85
2021/08/09 11:07:44;;;;;;;4.47;2.47;;;18.10;99.90;;;;;;5042180;28;20288;-84
2021/08/09 11:10:11;;;;;;;2.60;2.10;;;18.90;99.90;;;;;;5031744;28;20218;-88
2021/08/09 11:13:09;;;;;;;7.57;1.83;;;19.10;99.90;;;;;;5025088;28;20232;-87
2021/08/09 11:15:59;;;;;;;3.53;2.57;;;19.40;99.90;;;;;;4959289;28;20241;-84
2021/08/09 11:18:27;;;;;;;2.30;1.67;;;19.70;99.90;;;;;;5042085;28;20226;-86
2021/08/09 11:21:10;;;;;;;3.07;2.10;;;19.50;99.90;;;;;;5007409;28;20214;-85
2021/08/09 11:23:41;;;;;;;2.90;1.70;;;19.70;99.90;;;;;;5002867;28;20279;-89
2021/08/09 11:26:17;;;;;;;2.93;1.63;;;20.10;99.90;;;;;;5018419;28;20217;-87
2021/08/09 11:28:43;;;;;;;7.63;2.30;;;20.30;99.90;;;;;;5036694;28;20726;-84
2021/08/09 11:31:09;;;;;;;1.63;1.43;;;20.30;99.90;;;;;;5019248;28;20222;-88
2021/08/09 11:33:37;;;;;;;3.50;1.37;;;20.30;99.90;;;;;;5002901;28;20317;-87
2021/08/09 11:36:10;;;;;;;1.60;1.50;;;20.40;99.90;;;;;;5023227;28;20186;-84
2021/08/09 11:38:48;;;;;;;2.80;1.40;;;20.30;99.90;;;;;;5040299;28;20189;-87
2021/08/09 11:41:25;;;;;;;1.97;1.77;;;20.20;99.90;;;;;;5018326;28;20255;-86
2021/08/09 11:44:03;;;;;;;2.10;1.77;;;20.60;99.90;;;;;;5018747;28;20231;-92
2021/08/09 11:46:30;;;;;;;3.00;1.77;;;20.50;99.90;;;;;;5039543;28;20574;-86
2021/08/09 11:48:55;;;;;;;1.20;1.07;;;20.60;99.90;;;;;;5041131;28;20224;-86
2021/08/09 11:51:31;;;;;;;2.33;1.60;;;20.80;99.90;;;;;;5024043;28;20772;-90
2021/08/09 11:53:57;;;;;;;3.47;1.60;;;21.20;99.90;;;;;;5041090;28;20193;-88
2021/08/09 11:56:31;;;;;;;3.33;2.17;;;21.60;99.90;;;;;;5023913;28;20316;-90
2021/08/09 11:58:58;;;;;;;3.17;2.13;;;21.50;99.90;;;;;;5023555;28;20212;-90
2021/08/09 12:01:43;;;;;;;2.50;1.73;;;21.10;99.90;;;;;;5038728;28;20639;-87
2021/08/09 12:04:20;;;;;;;1.93;1.50;;;21.30;99.90;;;;;;5017391;28;20219;-89
2021/08/09 12:06:55;;;;;;;2.00;1.83;;;21.60;99.90;;;;;;5024640;28;20226;-88
2021/08/09 12:09:35;;;;;;;3.43;1.87;;;21.60;99.90;;;;;;5008082;28;20848;-89
2021/08/09 12:12:04;;;;;;;6.93;1.73;;;21.70;99.90;;;;;;5023905;28;20229;-87
2021/08/09 12:14:31;;;;;;;2.13;1.60;;;21.60;99.90;;;;;;5042716;28;20280;-90
2021/08/09 12:16:59;;;;;;;3.07;2.00;;;21.40;99.90;;;;;;5007633;28;20214;-87
2021/08/09 12:19:43;;;;;;;5.97;2.00;;;21.50;99.90;;;;;;5041847;28;20222;-91
2021/08/09 12:22:09;;;;;;;3.60;1.50;;;21.00;99.90;;;;;;5023339;28;20240;-87
2021/08/09 12:24:34;;;;;;;4.47;1.67;;;21.10;99.90;;;;;;5040259;28;20234;-89
2021/08/09 12:27:20;;;;;;;3.40;1.53;;;21.20;99.90;;;;;;5006949;28;20189;-87
2021/08/09 12:30:04;;;;;;;3.67;1.60;;;21.50;99.90;;;;;;5025013;28;20193;-87
2021/08/09 12:32:31;;;;;;;1.50;1.37;;;21.00;99.90;;;;;;5023726;28;20348;-90
2021/08/09 12:34:57;;;;;;;1.67;1.57;;;21.10;99.90;;;;;;5024363;28;21069;-88
2021/08/09 12:37:23;;;;;;;3.27;1.60;;;21.30;99.90;;;;;;5024076;28;20221;-89
2021/08/09 12:39:49;;;;;;;4.40;1.93;;;21.30;99.90;;;;;;5023229;28;20222;-91
2021/08/09 12:42:16;;;;;;;4.47;1.50;;;21.30;99.90;;;;;;5007718;28;20683;-88
2021/08/09 12:44:43;;;;;;;3.80;1.53;;;21.50;99.90;;;;;;5041357;28;20301;-87
2021/08/09 12:47:08;;;;;;;2.77;1.53;;;21.20;99.90;;;;;;5006854;28;20230;-89
2021/08/09 12:49:34;;;;;;;2.80;1.37;;;21.00;99.90;;;;;;5022888;28;20234;-89
2021/08/09 12:52:00;;;;;;;4.63;1.57;;;20.80;99.90;;;;;;5021134;28;20228;-87
2021/08/09 12:54:25;;;;;;;1.83;1.67;;;20.60;99.90;;;;;;5004401;28;20236;-88